Time;durP1;ratioP1;P1;durP2;ratioP2;P2;SDS_P1;SDS_P2;PMS_P1;PMS_P2;Temp;Humidity;BMP_temperature;BMP_pressure;BME280_temperature;BME280_humidity;BME280_pressure;Samples;Min_cycle;Max_cycle;Signal;HPM_P1;HPM_P2
2021/10/30 00:01:37;;;;;;;22.90;18.83;;;7.50;99.90;;;;;;4955360;29;20427;-66
2021/10/30 00:04:02;;;;;;;19.77;17.67;;;7.50;99.90;;;;;;4956478;28;20545;-66
2021/10/30 00:06:28;;;;;;;24.10;18.40;;;7.40;99.90;;;;;;4956656;28;20177;-66
2021/10/30 00:08:55;;;;;;;25.10;19.23;;;7.40;99.90;;;;;;4956113;28;20192;-66
2021/10/30 00:11:21;;;;;;;22.30;19.50;;;7.40;99.90;;;;;;4956700;28;20173;-66
2021/10/30 00:13:46;;;;;;;20.87;16.80;;;7.40;99.90;;;;;;4956412;28;20984;-66
2021/10/30 00:16:14;;;;;;;19.50;16.93;;;7.50;99.90;;;;;;4956364;28;20280;-65
2021/10/30 00:18:40;;;;;;;17.73;15.30;;;7.50;99.90;;;;;;4955583;28;20682;-65
2021/10/30 00:21:05;;;;;;;23.40;16.17;;;7.40;99.90;;;;;;4956238;28;20432;-66
2021/10/30 00:23:31;;;;;;;22.23;17.80;;;7.40;99.90;;;;;;4956170;28;20200;-66
2021/10/30 00:25:56;;;;;;;23.27;19.17;;;7.30;99.90;;;;;;4956222;28;20644;-65
2021/10/30 00:28:22;;;;;;;25.90;19.30;;;7.30;99.90;;;;;;4955760;28;20248;-66
2021/10/30 00:30:47;;;;;;;24.97;18.63;;;7.30;99.90;;;;;;4956074;28;20583;-66
2021/10/30 00:33:13;;;;;;;18.80;16.80;;;7.30;99.90;;;;;;4956105;28;20188;-65
2021/10/30 00:35:38;;;;;;;21.63;17.90;;;7.30;99.90;;;;;;4956055;28;20181;-66
2021/10/30 00:38:04;;;;;;;21.37;18.57;;;7.30;99.90;;;;;;4955617;28;20662;-65
2021/10/30 00:40:29;;;;;;;25.03;19.13;;;7.20;99.90;;;;;;4955974;28;20177;-65
2021/10/30 00:42:55;;;;;;;19.93;17.80;;;7.20;99.90;;;;;;4955842;28;20212;-66
2021/10/30 00:45:20;;;;;;;24.17;19.77;;;7.20;99.90;;;;;;4955903;28;20180;-65
2021/10/30 00:47:46;;;;;;;22.27;16.70;;;7.10;99.90;;;;;;4955417;28;20166;-66
2021/10/30 00:50:11;;;;;;;23.40;17.93;;;7.10;99.90;;;;;;4955798;28;20181;-65
2021/10/30 00:52:39;;;;;;;23.13;19.30;;;7.10;99.90;;;;;;4955612;28;20320;-65
2021/10/30 00:55:09;;;;;;;20.27;17.30;;;7.10;99.90;;;;;;4955639;28;20200;-65
2021/10/30 00:57:41;;;;;;;21.70;15.87;;;7.00;99.90;;;;;;4955276;28;20773;-66
2021/10/30 01:00:09;;;;;;;21.60;17.03;;;7.00;99.90;;;;;;4955551;28;20455;-66
2021/10/30 01:02:35;;;;;;;20.23;17.60;;;6.90;99.90;;;;;;4955473;28;20880;-66
2021/10/30 01:05:00;;;;;;;20.40;16.30;;;6.90;99.90;;;;;;4955389;28;20463;-66
2021/10/30 01:07:27;;;;;;;22.00;17.17;;;6.90;99.90;;;;;;4955162;28;20165;-66
2021/10/30 01:09:53;;;;;;;20.57;15.77;;;6.90;99.90;;;;;;4955231;28;20243;-65
2021/10/30 01:12:19;;;;;;;21.40;15.50;;;6.90;99.90;;;;;;4955371;28;20428;-65
2021/10/30 01:14:45;;;;;;;20.90;16.87;;;6.90;99.90;;;;;;4955258;28;20424;-66
2021/10/30 01:17:11;;;;;;;21.03;16.53;;;6.80;99.90;;;;;;4955132;28;20169;-65
2021/10/30 01:19:37;;;;;;;18.00;15.67;;;6.80;99.90;;;;;;4954825;28;20514;-66
2021/10/30 01:22:04;;;;;;;17.40;15.30;;;6.80;99.90;;;;;;4955134;28;20313;-65
2021/10/30 01:24:30;;;;;;;16.67;13.30;;;6.80;99.90;;;;;;4955110;28;20791;-65
2021/10/30 01:26:56;;;;;;;22.13;18.43;;;6.80;99.90;;;;;;4955042;28;20417;-65
2021/10/30 01:29:22;;;;;;;18.10;16.23;;;6.80;99.90;;;;;;4954064;28;20464;-66
2021/10/30 01:31:51;;;;;;;18.07;16.17;;;6.80;99.90;;;;;;4954994;28;20651;-66
2021/10/30 01:34:17;;;;;;;19.13;17.10;;;6.70;99.90;;;;;;4954806;28;20424;-66
2021/10/30 01:36:43;;;;;;;18.27;15.43;;;6.80;99.90;;;;;;4954979;28;20424;-66
2021/10/30 01:39:10;;;;;;;17.50;15.60;;;6.70;99.90;;;;;;4954489;28;20444;-65
2021/10/30 01:41:36;;;;;;;19.77;16.30;;;6.70;99.90;;;;;;4954830;28;20198;-66
2021/10/30 01:44:03;;;;;;;17.10;15.30;;;6.70;99.90;;;;;;4954692;28;20460;-66
2021/10/30 01:46:29;;;;;;;23.53;18.40;;;6.60;99.90;;;;;;4954664;28;20424;-66
2021/10/30 01:48:55;;;;;;;18.13;16.20;;;6.60;99.90;;;;;;4954295;28;21001;-66
2021/10/30 01:51:23;;;;;;;21.27;15.90;;;6.60;99.90;;;;;;4954623;28;20438;-66
2021/10/30 01:53:49;;;;;;;24.47;15.07;;;6.60;99.90;;;;;;4954608;28;20195;-66
2021/10/30 01:56:16;;;;;;;16.67;14.90;;;6.60;99.90;;;;;;4954589;28;20511;-65
2021/10/30 01:58:41;;;;;;;17.90;16.10;;;6.60;99.90;;;;;;4954223;28;20467;-66
2021/10/30 02:01:08;;;;;;;16.83;14.97;;;6.50;99.90;;;;;;4953131;29;20428;-66
2021/10/30 02:03:34;;;;;;;19.37;15.73;;;6.50;99.90;;;;;;4954650;28;20374;-66
2021/10/30 02:06:02;;;;;;;19.83;17.73;;;6.50;99.90;;;;;;4954435;28;20436;-65
2021/10/30 02:08:29;;;;;;;23.83;16.63;;;6.40;99.90;;;;;;4953988;28;20961;-65
2021/10/30 02:10:55;;;;;;;21.13;16.50;;;6.40;99.90;;;;;;4954289;28;20417;-66
2021/10/30 02:13:22;;;;;;;22.30;17.13;;;6.40;99.90;;;;;;4954319;29;20515;-66
2021/10/30 02:15:48;;;;;;;19.27;16.10;;;6.30;99.90;;;;;;4954254;28;20425;-66
2021/10/30 02:18:14;;;;;;;19.40;17.40;;;6.30;99.90;;;;;;4953789;28;20472;-66
2021/10/30 02:20:39;;;;;;;24.20;18.57;;;6.20;99.90;;;;;;4954212;28;20460;-66
2021/10/30 02:23:05;;;;;;;21.13;18.17;;;6.30;99.90;;;;;;4954101;28;20920;-66
2021/10/30 02:25:31;;;;;;;20.27;17.40;;;6.30;99.90;;;;;;4954061;29;20215;-66
2021/10/30 02:27:56;;;;;;;20.10;16.30;;;6.20;99.90;;;;;;4953796;28;20566;-66
2021/10/30 02:30:22;;;;;;;18.90;15.40;;;6.20;99.90;;;;;;4954030;28;20666;-66
2021/10/30 02:32:48;;;;;;;17.40;15.60;;;6.20;99.90;;;;;;4954049;28;20236;-66
2021/10/30 02:35:14;;;;;;;19.57;17.57;;;6.20;99.90;;;;;;4953922;28;20518;-65
2021/10/30 02:37:40;;;;;;;18.00;15.97;;;6.10;99.90;;;;;;4953669;28;20179;-65
2021/10/30 02:40:06;;;;;;;19.90;16.33;;;6.10;99.90;;;;;;4954092;28;20436;-66
2021/10/30 02:42:32;;;;;;;18.80;16.23;;;6.00;99.90;;;;;;4953870;28;20468;-65
2021/10/30 02:45:00;;;;;;;21.43;16.70;;;6.00;99.90;;;;;;4953973;28;20822;-66
2021/10/30 02:47:26;;;;;;;20.10;16.37;;;5.90;99.90;;;;;;4953596;28;20445;-66
2021/10/30 02:49:51;;;;;;;21.23;16.70;;;5.90;99.90;;;;;;4953843;28;20440;-65
2021/10/30 02:52:17;;;;;;;19.47;17.47;;;5.90;99.90;;;;;;4953863;28;20413;-66
2021/10/30 02:54:43;;;;;;;19.07;15.60;;;6.00;99.90;;;;;;4953783;28;20177;-66
2021/10/30 02:57:08;;;;;;;20.60;15.40;;;6.00;99.90;;;;;;4952482;29;20546;-65
2021/10/30 02:59:34;;;;;;;17.60;15.70;;;6.00;99.90;;;;;;4952200;29;20197;-66
2021/10/30 03:01:59;;;;;;;17.33;14.70;;;5.90;99.90;;;;;;4953752;28;20173;-67
2021/10/30 03:04:25;;;;;;;19.43;15.73;;;5.80;99.90;;;;;;4953799;28;20639;-65
2021/10/30 03:06:51;;;;;;;19.90;16.50;;;5.80;99.90;;;;;;4953743;28;20208;-65
2021/10/30 03:09:17;;;;;;;16.63;14.93;;;5.80;99.90;;;;;;4953437;28;20231;-65
2021/10/30 03:11:42;;;;;;;19.83;14.80;;;5.80;99.90;;;;;;4953687;28;20574;-66
2021/10/30 03:14:08;;;;;;;17.10;15.30;;;5.80;99.90;;;;;;4953614;28;20177;-66
2021/10/30 03:16:33;;;;;;;16.53;14.93;;;5.80;99.90;;;;;;4953623;28;20170;-66
2021/10/30 03:18:59;;;;;;;15.47;13.97;;;5.80;99.90;;;;;;4953259;28;20204;-66
2021/10/30 03:21:24;;;;;;;15.33;13.77;;;5.80;99.90;;;;;;4953622;28;20162;-66
2021/10/30 03:23:50;;;;;;;17.03;14.50;;;5.80;99.90;;;;;;4953530;28;20719;-66
2021/10/30 03:26:16;;;;;;;17.67;14.70;;;5.80;99.90;;;;;;4953969;28;20253;-65
2021/10/30 03:28:41;;;;;;;17.03;14.80;;;5.70;99.90;;;;;;4953156;28;20511;-66
2021/10/30 03:31:07;;;;;;;16.73;14.00;;;5.80;99.90;;;;;;4953504;28;20209;-65
2021/10/30 03:33:33;;;;;;;16.53;13.60;;;5.80;99.90;;;;;;4953732;28;20184;-66
2021/10/30 03:35:58;;;;;;;16.40;13.73;;;5.80;99.90;;;;;;4953557;28;20177;-65
2021/10/30 03:38:24;;;;;;;16.53;14.73;;;5.80;99.90;;;;;;4953059;28;20694;-66
2021/10/30 03:40:50;;;;;;;15.20;13.67;;;5.80;99.90;;;;;;4953478;28;20173;-66
2021/10/30 03:43:16;;;;;;;17.13;13.60;;;5.80;99.90;;;;;;4953276;28;20670;-65
2021/10/30 03:45:42;;;;;;;13.70;12.30;;;5.80;99.90;;;;;;4953388;28;20507;-65
2021/10/30 03:48:08;;;;;;;15.57;13.97;;;5.80;99.90;;;;;;4953050;28;20201;-65
2021/10/30 03:50:34;;;;;;;15.30;13.67;;;5.80;99.90;;;;;;4953405;28;20420;-66
2021/10/30 03:53:00;;;;;;;19.53;17.63;;;5.80;99.90;;;;;;4954844;28;20260;-66
2021/10/30 03:55:25;;;;;;;19.10;14.33;;;5.80;99.90;;;;;;4956820;28;20503;-66
2021/10/30 03:57:51;;;;;;;16.50;14.83;;;5.90;99.90;;;;;;4956395;28;20208;-65
2021/10/30 04:00:16;;;;;;;19.30;16.77;;;5.90;99.90;;;;;;4956681;28;20598;-66
2021/10/30 04:02:43;;;;;;;15.97;14.37;;;5.80;99.90;;;;;;4956749;28;20295;-66
2021/10/30 04:05:08;;;;;;;15.90;14.20;;;5.80;99.90;;;;;;4956586;28;20260;-66
2021/10/30 04:07:34;;;;;;;17.80;15.73;;;5.80;99.90;;;;;;4956314;28;20461;-66
2021/10/30 04:09:59;;;;;;;18.37;16.43;;;5.70;99.90;;;;;;4956588;28;20674;-65
2021/10/30 04:12:25;;;;;;;18.50;16.30;;;5.70;99.90;;;;;;4956420;28;20181;-66
2021/10/30 04:14:51;;;;;;;19.47;15.60;;;5.70;99.90;;;;;;4956514;28;20559;-65
2021/10/30 04:17:16;;;;;;;18.47;15.07;;;5.70;99.90;;;;;;4956225;28;20181;-65
2021/10/30 04:19:42;;;;;;;19.30;16.70;;;5.60;99.90;;;;;;4956479;28;20240;-66
2021/10/30 04:22:07;;;;;;;17.90;14.87;;;5.60;99.90;;;;;;4956320;28;20173;-66
2021/10/30 04:24:33;;;;;;;22.00;15.80;;;5.50;99.90;;;;;;4956322;28;20187;-66
2021/10/30 04:26:58;;;;;;;18.00;16.10;;;5.50;99.90;;;;;;4956064;28;20587;-65
2021/10/30 04:29:25;;;;;;;19.30;17.30;;;5.50;99.90;;;;;;4956450;28;20193;-66
2021/10/30 04:31:53;;;;;;;18.40;16.13;;;5.50;99.90;;;;;;4956140;28;20199;-65
2021/10/30 04:34:19;;;;;;;22.47;16.80;;;5.40;99.90;;;;;;4956170;28;20424;-66
2021/10/30 04:36:47;;;;;;;17.97;16.10;;;5.40;99.90;;;;;;4956181;28;20428;-65
2021/10/30 04:39:13;;;;;;;19.33;16.70;;;5.40;99.90;;;;;;4955625;28;20975;-66
2021/10/30 04:41:41;;;;;;;21.50;17.83;;;5.40;99.90;;;;;;4955879;28;20465;-67
2021/10/30 04:44:08;;;;;;;20.40;16.97;;;5.40;99.90;;;;;;4955222;28;20468;-65
2021/10/30 04:46:34;;;;;;;19.73;16.93;;;5.40;99.90;;;;;;4956157;28;20420;-65
2021/10/30 04:49:00;;;;;;;20.93;15.80;;;5.30;99.90;;;;;;4955716;28;20796;-66
2021/10/30 04:51:25;;;;;;;18.93;16.60;;;5.40;99.90;;;;;;4955773;28;20180;-65
2021/10/30 04:53:51;;;;;;;20.77;17.10;;;5.30;99.90;;;;;;4955437;28;20424;-65
2021/10/30 04:56:17;;;;;;;20.20;17.27;;;5.30;99.90;;;;;;4955644;28;20614;-65
2021/10/30 04:58:43;;;;;;;20.30;17.27;;;5.20;99.90;;;;;;4955238;28;20737;-64
2021/10/30 05:01:13;;;;;;;21.27;16.33;;;5.20;99.90;;;;;;4955615;28;20173;-65
2021/10/30 05:03:40;;;;;;;17.97;16.07;;;5.10;99.90;;;;;;4954887;28;20456;-65
2021/10/30 05:06:06;;;;;;;19.40;17.10;;;5.10;99.90;;;;;;4954945;28;20450;-65
2021/10/30 05:08:32;;;;;;;18.57;16.50;;;5.10;99.90;;;;;;4955061;28;20447;-65
2021/10/30 05:10:58;;;;;;;21.73;16.50;;;5.10;99.90;;;;;;4955353;28;20448;-66
2021/10/30 05:13:24;;;;;;;22.30;16.60;;;5.10;99.90;;;;;;4955361;28;20463;-65
2021/10/30 05:15:49;;;;;;;18.70;16.70;;;5.10;99.90;;;;;;4955382;28;20188;-67
2021/10/30 05:18:16;;;;;;;18.23;16.27;;;5.00;99.90;;;;;;4954855;28;20243;-65
2021/10/30 05:20:41;;;;;;;19.17;17.10;;;5.10;99.90;;;;;;4955223;28;20496;-66
2021/10/30 05:23:07;;;;;;;17.53;15.63;;;5.10;99.90;;;;;;4955069;28;20231;-66
2021/10/30 05:25:32;;;;;;;21.33;16.50;;;5.10;99.90;;;;;;4955043;28;20708;-66
2021/10/30 05:27:58;;;;;;;20.60;15.90;;;5.10;99.90;;;;;;4954776;28;20260;-65
2021/10/30 05:30:23;;;;;;;23.17;15.37;;;5.10;99.90;;;;;;4955031;28;20243;-65
2021/10/30 05:32:49;;;;;;;20.07;16.17;;;5.10;99.90;;;;;;4954965;28;20188;-66
2021/10/30 05:35:14;;;;;;;17.00;14.20;;;5.10;99.90;;;;;;4955026;28;20169;-65
2021/10/30 05:37:40;;;;;;;16.63;15.00;;;5.10;99.90;;;;;;4954723;28;20644;-65
2021/10/30 05:40:08;;;;;;;21.23;15.00;;;5.00;99.90;;;;;;4954887;28;20173;-65
2021/10/30 05:42:39;;;;;;;19.40;15.70;;;5.00;99.90;;;;;;4954705;28;20251;-67
2021/10/30 05:45:06;;;;;;;18.40;15.30;;;5.00;99.90;;;;;;4954823;28;20417;-65
2021/10/30 05:47:34;;;;;;;18.37;16.33;;;4.80;99.90;;;;;;4954276;28;20452;-66
2021/10/30 05:49:59;;;;;;;20.30;17.00;;;4.70;99.90;;;;;;4954855;28;20421;-65
2021/10/30 05:52:25;;;;;;;19.73;15.80;;;4.80;99.90;;;;;;4954941;28;20421;-65
2021/10/30 05:54:50;;;;;;;20.50;17.43;;;4.80;99.90;;;;;;4955002;28;20177;-65
2021/10/30 05:57:16;;;;;;;19.93;15.03;;;4.80;99.90;;;;;;4954409;28;20252;-65
2021/10/30 05:59:41;;;;;;;20.37;17.03;;;4.90;99.90;;;;;;4954662;28;20641;-66
2021/10/30 06:02:12;;;;;;;20.17;15.70;;;4.90;99.90;;;;;;4954475;28;20179;-66
2021/10/30 06:04:38;;;;;;;18.60;15.60;;;4.90;99.90;;;;;;4954445;28;20165;-65
2021/10/30 06:07:04;;;;;;;19.00;15.37;;;4.90;99.90;;;;;;4954305;28;20952;-65
2021/10/30 06:09:29;;;;;;;17.33;15.53;;;4.90;99.90;;;;;;4953954;28;20445;-65
2021/10/30 06:11:55;;;;;;;20.00;16.50;;;4.90;99.90;;;;;;4954386;28;20173;-65
2021/10/30 06:14:21;;;;;;;19.50;16.20;;;4.90;99.90;;;;;;4954568;28;20523;-66
2021/10/30 06:16:46;;;;;;;20.20;18.40;;;4.90;99.90;;;;;;4953994;28;20220;-66
2021/10/30 06:19:12;;;;;;;21.40;17.40;;;4.90;99.90;;;;;;4953801;28;20209;-65
2021/10/30 06:21:37;;;;;;;21.50;17.47;;;4.80;99.90;;;;;;4954131;28;20204;-66
2021/10/30 06:24:03;;;;;;;21.40;16.90;;;4.80;99.90;;;;;;4953946;28;20211;-65
2021/10/30 06:26:29;;;;;;;22.77;19.23;;;4.90;99.90;;;;;;4954178;28;20271;-65
2021/10/30 06:28:55;;;;;;;21.27;16.83;;;4.90;99.90;;;;;;4953741;28;20854;-65
2021/10/30 06:31:22;;;;;;;23.50;17.23;;;5.00;99.90;;;;;;4954052;28;20456;-65
2021/10/30 06:33:48;;;;;;;22.07;16.30;;;5.00;99.90;;;;;;4954009;28;20416;-65
2021/10/30 06:36:14;;;;;;;18.10;16.27;;;5.10;99.90;;;;;;4954024;28;20965;-65
2021/10/30 06:38:39;;;;;;;19.60;16.27;;;5.10;99.90;;;;;;4953330;28;20468;-65
2021/10/30 06:41:06;;;;;;;21.30;16.70;;;5.10;99.90;;;;;;4953631;28;20177;-66
2021/10/30 06:43:33;;;;;;;20.30;17.10;;;5.20;99.90;;;;;;4953623;28;20626;-65
2021/10/30 06:45:59;;;;;;;21.57;16.77;;;5.50;99.90;;;;;;4953885;28;20421;-65
2021/10/30 06:48:25;;;;;;;18.93;15.60;;;5.40;99.90;;;;;;4953572;28;20436;-65
2021/10/30 06:50:53;;;;;;;24.23;18.17;;;5.50;99.90;;;;;;4953762;28;20412;-66
2021/10/30 06:53:18;;;;;;;22.43;18.00;;;5.60;99.90;;;;;;4953800;28;20424;-65
2021/10/30 06:55:44;;;;;;;19.20;16.17;;;5.70;99.90;;;;;;4953865;28;20432;-65
2021/10/30 06:58:10;;;;;;;18.63;15.20;;;5.80;99.90;;;;;;4953497;28;20219;-65
2021/10/30 07:00:35;;;;;;;16.87;15.10;;;5.90;99.90;;;;;;4953881;28;20643;-65
2021/10/30 07:03:02;;;;;;;16.57;14.73;;;6.10;99.90;;;;;;4953645;28;20204;-66
2021/10/30 07:05:27;;;;;;;18.90;14.83;;;6.20;99.90;;;;;;4953368;28;20169;-66
2021/10/30 07:07:53;;;;;;;20.00;15.07;;;6.30;99.90;;;;;;4953281;28;20507;-65
2021/10/30 07:10:19;;;;;;;16.10;14.17;;;6.50;99.90;;;;;;4953810;28;20165;-65
2021/10/30 07:12:45;;;;;;;19.40;14.70;;;6.70;99.90;;;;;;4953717;28;20177;-65
2021/10/30 07:15:13;;;;;;;17.70;13.13;;;6.80;99.90;;;;;;4953764;28;20431;-65
2021/10/30 07:17:39;;;;;;;14.77;13.27;;;7.20;99.90;;;;;;4953054;28;20200;-66
2021/10/30 07:20:07;;;;;;;20.63;12.63;;;7.50;99.90;;;;;;4953555;28;20432;-65
2021/10/30 07:22:40;;;;;;;18.97;14.10;;;8.00;99.90;;;;;;4953473;28;20467;-65
2021/10/30 07:25:06;;;;;;;21.13;15.40;;;8.20;99.90;;;;;;4952737;28;20436;-64
2021/10/30 07:27:32;;;;;;;16.13;14.20;;;8.50;99.90;;;;;;4953710;28;20428;-65
2021/10/30 07:29:57;;;;;;;15.60;13.07;;;8.60;99.90;;;;;;4957209;29;20467;-66
2021/10/30 07:32:23;;;;;;;16.20;13.10;;;8.80;99.90;;;;;;4957083;29;20228;-65
2021/10/30 07:34:48;;;;;;;16.20;12.40;;;8.50;99.90;;;;;;4957087;29;20239;-65
2021/10/30 07:37:14;;;;;;;17.83;12.87;;;8.30;99.90;;;;;;4956873;29;20180;-66
2021/10/30 07:39:39;;;;;;;15.90;13.63;;;8.30;99.90;;;;;;4956853;29;20674;-66
2021/10/30 07:42:06;;;;;;;16.20;13.33;;;8.30;99.90;;;;;;4957038;29;20212;-68
2021/10/30 07:44:32;;;;;;;16.50;13.33;;;8.60;99.90;;;;;;4957188;29;20568;-67
2021/10/30 07:46:57;;;;;;;37.73;19.83;;;8.80;99.90;;;;;;4956815;29;20417;-65
2021/10/30 07:49:23;;;;;;;15.70;14.10;;;8.90;99.90;;;;;;4956392;29;20543;-68
2021/10/30 07:51:49;;;;;;;22.70;20.27;;;8.80;99.90;;;;;;4950210;28;20188;-66
2021/10/30 07:54:15;;;;;;;23.43;17.80;;;8.90;99.90;;;;;;4953151;28;20251;-66
2021/10/30 07:56:40;;;;;;;16.57;13.90;;;8.90;99.90;;;;;;4954563;29;20200;-66
2021/10/30 07:59:06;;;;;;;14.90;13.40;;;8.90;99.90;;;;;;4959936;28;20452;-66
2021/10/30 08:01:31;;;;;;;19.27;13.50;;;9.20;99.90;;;;;;4975148;28;20168;-65
2021/10/30 08:03:57;;;;;;;17.80;15.90;;;9.40;99.90;;;;;;4975924;28;20204;-65
2021/10/30 08:06:22;;;;;;;19.00;14.20;;;9.50;99.90;;;;;;4975970;28;20176;-66
2021/10/30 08:08:48;;;;;;;15.63;14.03;;;9.80;99.90;;;;;;4975561;28;20192;-65
2021/10/30 08:11:14;;;;;;;15.93;14.40;;;10.10;99.90;;;;;;4975868;28;20267;-66
2021/10/30 08:13:40;;;;;;;18.80;15.93;;;10.50;99.90;;;;;;4975824;28;20180;-66
2021/10/30 08:16:05;;;;;;;17.53;13.27;;;10.90;99.90;;;;;;4975748;28;20621;-66
2021/10/30 08:18:31;;;;;;;18.07;16.17;;;11.40;99.90;;;;;;4975230;28;20498;-65
2021/10/30 08:20:56;;;;;;;15.70;14.07;;;11.50;99.90;;;;;;4975696;28;20665;-66
2021/10/30 08:23:22;;;;;;;15.53;13.80;;;11.50;99.90;;;;;;4975523;28;20211;-66
2021/10/30 08:25:47;;;;;;;16.70;14.40;;;11.00;99.90;;;;;;4975640;28;20179;-65
2021/10/30 08:28:13;;;;;;;16.17;13.37;;;10.30;99.90;;;;;;4975269;28;20205;-65
2021/10/30 08:30:39;;;;;;;16.10;14.50;;;10.30;99.90;;;;;;4975527;28;20179;-67
2021/10/30 08:33:08;;;;;;;16.67;14.87;;;10.20;99.90;;;;;;4975426;28;20172;-65
2021/10/30 08:35:33;;;;;;;15.80;14.20;;;10.20;99.90;;;;;;4975493;28;20168;-66
2021/10/30 08:37:59;;;;;;;16.43;14.73;;;10.30;99.90;;;;;;4974958;28;21016;-68
2021/10/30 08:40:24;;;;;;;15.77;13.90;;;10.40;99.90;;;;;;4975155;28;20255;-66
2021/10/30 08:42:51;;;;;;;16.80;13.83;;;10.60;99.90;;;;;;4975181;28;20208;-66
2021/10/30 08:45:17;;;;;;;16.70;14.90;;;10.60;99.90;;;;;;4975216;28;20175;-65
2021/10/30 08:47:47;;;;;;;15.47;13.90;;;10.60;99.90;;;;;;4974803;28;20909;-65
2021/10/30 08:50:14;;;;;;;16.77;15.07;;;10.30;99.90;;;;;;4975164;28;20434;-66
2021/10/30 08:52:40;;;;;;;19.00;14.63;;;10.40;99.90;;;;;;4975129;28;20419;-65
2021/10/30 08:55:08;;;;;;;18.53;14.73;;;10.50;99.90;;;;;;4975070;28;20412;-65
2021/10/30 08:57:35;;;;;;;14.80;13.40;;;10.70;99.90;;;;;;4974556;28;20428;-66
2021/10/30 09:00:25;;;;;;;19.57;15.00;;;10.80;99.90;;;;;;4974926;28;20427;-66
2021/10/30 09:03:00;;;;;;;19.50;14.63;;;11.10;99.90;;;;;;4974861;28;20456;-66
2021/10/30 09:05:26;;;;;;;15.27;13.67;;;11.20;99.90;;;;;;4974842;28;20944;-66
2021/10/30 09:07:54;;;;;;;14.90;13.40;;;11.10;99.90;;;;;;4974468;28;20786;-66
2021/10/30 09:10:25;;;;;;;15.50;13.73;;;11.20;99.90;;;;;;4974715;28;20424;-67
2021/10/30 09:12:56;;;;;;;15.57;14.07;;;11.10;99.90;;;;;;4974722;28;20939;-65
2021/10/30 09:15:36;;;;;;;16.63;14.90;;;11.00;99.90;;;;;;4974642;28;20929;-66
2021/10/30 09:18:03;;;;;;;16.53;14.77;;;10.80;99.90;;;;;;4974202;28;20832;-66
2021/10/30 09:20:38;;;;;;;16.33;13.73;;;10.70;99.90;;;;;;4974542;28;20455;-66
2021/10/30 09:23:09;;;;;;;16.73;14.93;;;10.70;99.90;;;;;;4974541;28;20494;-66
2021/10/30 09:25:35;;;;;;;15.13;13.63;;;10.50;99.90;;;;;;4974546;28;20852;-66
2021/10/30 09:28:01;;;;;;;19.90;14.87;;;10.30;99.90;;;;;;4974131;28;20439;-66
2021/10/30 09:30:36;;;;;;;16.10;14.43;;;10.40;99.90;;;;;;4974377;28;20175;-65
2021/10/30 09:33:09;;;;;;;17.87;14.03;;;10.50;99.90;;;;;;4974395;28;20937;-65
2021/10/30 09:35:44;;;;;;;16.60;14.33;;;10.60;99.90;;;;;;4974231;28;20940;-66
2021/10/30 09:38:28;;;;;;;16.90;14.50;;;10.50;99.90;;;;;;4973933;28;20537;-65
2021/10/30 09:40:54;;;;;;;16.87;15.07;;;10.60;99.90;;;;;;4974249;28;20415;-65
2021/10/30 09:43:21;;;;;;;17.07;15.23;;;10.70;99.90;;;;;;4974076;28;20811;-66
2021/10/30 09:45:53;;;;;;;16.00;14.53;;;10.70;99.90;;;;;;4974099;28;20172;-66
2021/10/30 09:48:24;;;;;;;15.83;14.23;;;10.70;99.90;;;;;;4973962;28;20431;-66
2021/10/30 09:50:58;;;;;;;15.73;14.10;;;10.60;99.90;;;;;;4973492;28;20420;-66
2021/10/30 09:53:35;;;;;;;15.30;13.93;;;10.60;99.90;;;;;;4974005;28;20454;-66
2021/10/30 09:56:12;;;;;;;17.60;15.17;;;10.70;99.90;;;;;;4974034;28;20486;-65
2021/10/30 09:58:43;;;;;;;16.47;14.77;;;10.60;99.90;;;;;;4973498;28;20486;-67
2021/10/30 10:01:12;;;;;;;18.07;14.73;;;10.60;99.90;;;;;;4974088;28;20831;-66
2021/10/30 10:03:40;;;;;;;19.13;16.13;;;10.60;99.90;;;;;;4973623;28;20451;-66
2021/10/30 10:06:08;;;;;;;16.70;14.87;;;10.60;99.90;;;;;;4973758;28;20546;-66
2021/10/30 10:08:38;;;;;;;19.53;15.60;;;10.70;99.90;;;;;;4973386;28;20431;-66
2021/10/30 10:11:08;;;;;;;20.00;16.40;;;10.70;99.90;;;;;;4973737;28;20419;-65
2021/10/30 10:13:38;;;;;;;17.97;16.17;;;10.70;99.90;;;;;;4973653;28;20416;-66
2021/10/30 10:16:14;;;;;;;16.37;14.53;;;10.80;99.90;;;;;;4973574;28;20420;-66
2021/10/30 10:18:42;;;;;;;16.37;14.73;;;10.80;99.90;;;;;;4973191;28;20458;-66
2021/10/30 10:21:11;;;;;;;25.30;15.93;;;10.90;99.90;;;;;;4973608;28;20431;-65
2021/10/30 10:23:39;;;;;;;17.87;16.03;;;10.90;99.90;;;;;;4973359;28;20498;-66
2021/10/30 10:26:05;;;;;;;16.90;15.20;;;10.90;99.90;;;;;;4973497;28;20784;-67
2021/10/30 10:28:36;;;;;;;17.27;15.47;;;10.90;99.90;;;;;;4973519;28;20444;-67
2021/10/30 10:31:04;;;;;;;26.20;21.90;;;10.80;99.90;;;;;;4973503;28;20178;-66
2021/10/30 10:33:31;;;;;;;21.00;16.40;;;10.80;99.90;;;;;;4972173;28;20431;-67
2021/10/30 10:36:21;;;;;;;18.90;16.53;;;10.90;99.90;;;;;;4973307;28;20809;-67
2021/10/30 10:38:53;;;;;;;21.93;17.40;;;10.90;99.90;;;;;;4972942;28;21023;-67
2021/10/30 10:41:37;;;;;;;18.50;16.03;;;10.90;99.90;;;;;;4973283;28;20435;-67
2021/10/30 10:44:07;;;;;;;20.97;16.73;;;11.00;99.90;;;;;;4973119;28;21063;-67
2021/10/30 10:46:36;;;;;;;21.30;16.20;;;11.10;99.90;;;;;;4973197;28;20416;-67
2021/10/30 10:52:21;;;;;;;18.03;15.73;;;11.20;99.90;;;;;;4973158;28;20424;-66
2021/10/30 10:54:53;;;;;;;23.00;17.40;;;11.30;99.90;;;;;;4973114;28;20423;-67
2021/10/30 10:57:33;;;;;;;21.97;17.03;;;11.30;99.90;;;;;;4972882;28;20420;-67
2021/10/30 11:00:05;;;;;;;20.37;17.97;;;11.30;99.90;;;;;;4973224;28;20415;-67
2021/10/30 11:02:55;;;;;;;19.83;17.20;;;11.30;99.90;;;;;;4975279;28;20424;-66
2021/10/30 11:05:29;;;;;;;19.83;17.83;;;11.20;99.90;;;;;;4969357;28;20462;-66
2021/10/30 11:07:54;;;;;;;19.07;15.90;;;11.10;99.90;;;;;;4976683;28;20441;-67
2021/10/30 11:10:35;;;;;;;19.40;16.57;;;11.10;99.90;;;;;;4977013;28;20423;-67
2021/10/30 11:13:08;;;;;;;18.53;15.37;;;11.00;99.90;;;;;;4976924;28;20535;-66
2021/10/30 11:15:44;;;;;;;18.83;16.87;;;11.00;99.90;;;;;;4976931;28;20490;-67
2021/10/30 11:18:22;;;;;;;18.13;16.40;;;10.90;99.90;;;;;;4976300;28;20462;-67
2021/10/30 11:21:40;;;;;;;17.37;14.50;;;11.00;99.90;;;;;;4976844;28;20423;-67
2021/10/30 11:24:32;;;;;;;20.57;18.17;;;11.10;99.90;;;;;;4974462;28;20463;-67
2021/10/30 11:27:05;;;;;;;20.77;18.70;;;11.10;99.90;;;;;;4976636;28;20419;-67
2021/10/30 11:29:31;;;;;;;19.67;17.67;;;11.20;99.90;;;;;;4976364;28;20435;-67
2021/10/30 11:32:03;;;;;;;17.53;15.63;;;11.20;99.90;;;;;;4976576;28;20417;-66
2021/10/30 11:34:29;;;;;;;16.57;14.87;;;11.20;99.90;;;;;;4976581;28;20900;-66
2021/10/30 11:36:56;;;;;;;16.23;14.67;;;11.30;99.90;;;;;;4976532;28;20455;-65
2021/10/30 11:39:23;;;;;;;17.60;15.80;;;11.30;99.90;;;;;;4976204;28;20197;-67
2021/10/30 11:41:49;;;;;;;17.10;15.57;;;11.30;99.90;;;;;;4976458;28;20764;-67
2021/10/30 11:44:16;;;;;;;18.30;15.73;;;11.30;99.90;;;;;;4976442;28;20518;-67
2021/10/30 11:46:53;;;;;;;18.23;16.13;;;11.30;99.90;;;;;;4976221;28;20180;-65
2021/10/30 11:49:22;;;;;;;18.83;17.03;;;11.30;99.90;;;;;;4975987;28;20864;-68
2021/10/30 11:51:48;;;;;;;19.37;16.67;;;11.20;99.90;;;;;;4976205;28;20874;-66
2021/10/30 11:54:14;;;;;;;17.33;15.73;;;11.10;99.90;;;;;;4976177;28;20459;-67
2021/10/30 11:56:45;;;;;;;18.83;16.80;;;11.10;99.90;;;;;;4976131;28;20214;-67
2021/10/30 11:59:11;;;;;;;20.63;18.03;;;11.10;99.90;;;;;;4975750;28;20586;-67
2021/10/30 12:01:42;;;;;;;24.00;17.87;;;11.10;99.90;;;;;;4976121;28;20412;-67
2021/10/30 12:04:09;;;;;;;18.90;17.00;;;11.00;99.90;;;;;;4975954;28;20505;-67
2021/10/30 12:06:41;;;;;;;23.20;20.80;;;10.90;99.90;;;;;;4975981;28;20426;-67
2021/10/30 12:09:25;;;;;;;22.87;20.50;;;10.80;99.90;;;;;;4975689;28;20432;-67
2021/10/30 12:11:55;;;;;;;23.07;19.87;;;10.60;99.90;;;;;;4975851;28;20408;-67
2021/10/30 12:14:26;;;;;;;24.77;22.27;;;10.70;99.90;;;;;;4975221;28;20420;-67
2021/10/30 12:16:52;;;;;;;22.37;19.80;;;10.60;99.90;;;;;;4975797;28;20792;-67
2021/10/30 12:19:20;;;;;;;22.90;20.60;;;10.50;99.90;;;;;;4975408;28;20467;-67
2021/10/30 12:21:45;;;;;;;23.57;20.10;;;10.50;99.90;;;;;;4975805;28;20933;-67
2021/10/30 12:24:11;;;;;;;24.43;19.77;;;10.50;99.90;;;;;;4974314;28;20478;-65
2021/10/30 12:26:55;;;;;;;21.73;18.80;;;10.50;99.90;;;;;;4975602;28;20212;-67
2021/10/30 12:29:23;;;;;;;26.40;21.97;;;10.60;99.90;;;;;;4975275;28;20949;-68
2021/10/30 12:32:00;;;;;;;27.30;21.37;;;10.60;99.90;;;;;;4975612;28;20424;-67
2021/10/30 12:34:26;;;;;;;22.03;19.73;;;10.60;99.90;;;;;;4975471;28;20922;-67
2021/10/30 12:36:55;;;;;;;19.97;17.97;;;10.60;99.90;;;;;;4975449;28;20422;-67
2021/10/30 12:39:22;;;;;;;18.20;16.30;;;10.60;99.90;;;;;;4975486;28;20192;-66